Terminal Aerodrome Forecast
Issued by NWS

Home | Current Version | Previous Version | Text Only | Print | Product List | Glossary On
Versions: 1 2 3 4 5 6 7 8 9 10 11 12 13 14 15 16
243
FTUS46 KPDT 192320
TAFDLS
TAF
KDLS 192320Z 2000/2024 30012KT P6SM -SHRA BKN050 OVC070
     FM200300 30007KT P6SM SCT050 BKN090
     FM200700 31005KT 6SM -RA SCT030 OVC050
     FM201900 32010G19KT P6SM -SHRA SCT040 BKN060=

USA.gov is the U.S. government's official web portal to all federal, state and local government web resources and services.